Time;durP1;ratioP1;P1;durP2;ratioP2;P2;SDS_P1;SDS_P2;PMS_P1;PMS_P2;Temp;Humidity;BMP_temperature;BMP_pressure;BME280_temperature;BME280_humidity;BME280_pressure;Samples;Min_cycle;Max_cycle;Signal;HPM_P1;HPM_P2
2022/06/08 00:00:47;;;;;;;;;21.33;21.00;;;;;;;;6492326;31;8952;-62
2022/06/08 00:06:55;;;;;;;;;18.67;18.67;;;;;;;;6491317;39;8846;-61
2022/06/08 00:12:58;;;;;;;;;19.67;18.33;;;;;;;;6490624;46;8898;-61
2022/06/08 00:19:00;;;;;;;;;17.33;16.67;;;;;;;;6492185;31;8981;-61
2022/06/08 00:25:06;;;;;;;;;19.00;18.00;;;;;;;;6491277;46;8842;-61
2022/06/08 00:31:08;;;;;;;;;19.00;19.00;;;;;;;;6491395;31;8988;-61
2022/06/08 00:37:14;;;;;;;;;20.00;16.67;;;;;;;;6491195;39;8877;-60
2022/06/08 00:43:16;;;;;;;;;18.67;17.67;;;;;;;;6490766;46;8922;-61
2022/06/08 00:49:30;;;;;;;;;19.67;17.67;;;;;;;;6491412;39;8862;-61
2022/06/08 00:55:35;;;;;;;;;20.67;18.67;;;;;;;;6491264;39;9630;-62
2022/06/08 01:01:39;;;;;;;;;18.67;16.33;;;;;;;;6491461;39;9005;-62
2022/06/08 01:07:43;;;;;;;;;20.67;20.00;;;;;;;;6490466;46;8912;-61
2022/06/08 01:13:47;;;;;;;;;22.00;19.00;;;;;;;;6490951;39;8885;-60
2022/06/08 01:19:52;;;;;;;;;22.33;19.67;;;;;;;;6490464;31;9020;-61
2022/06/08 01:26:19;;;;;;;;;21.33;20.33;;;;;;;;6489970;39;8898;-60
2022/06/08 01:32:28;;;;;;;;;20.00;20.00;;;;;;;;6490050;31;8925;-61
2022/06/08 01:38:46;;;;;;;;;18.67;16.67;;;;;;;;6491101;39;8846;-60
2022/06/08 01:45:28;;;;;;;;;21.33;18.33;;;;;;;;6490947;39;8930;-60
2022/06/08 01:51:52;;;;;;;;;22.00;20.67;;;;;;;;6490518;39;9052;-61
2022/06/08 01:57:59;;;;;;;;;22.33;20.67;;;;;;;;6489651;47;8940;-61
2022/06/08 02:04:17;;;;;;;;;22.33;20.67;;;;;;;;6490344;31;8879;-61
2022/06/08 02:10:26;;;;;;;;;21.33;19.33;;;;;;;;6492054;31;8892;-61
2022/06/08 02:16:53;;;;;;;;;18.33;17.00;;;;;;;;6492140;31;8855;-61
2022/06/08 02:23:05;;;;;;;;;24.00;24.00;;;;;;;;6492423;31;8952;-63
2022/06/08 02:29:18;;;;;;;;;21.33;21.33;;;;;;;;6491961;39;8855;-61
2022/06/08 02:35:27;;;;;;;;;24.33;23.00;;;;;;;;6491452;46;9027;-61
2022/06/08 02:41:32;;;;;;;;;17.00;17.00;;;;;;;;6491674;31;8903;-61
2022/06/08 02:47:40;;;;;;;;;24.33;24.00;;;;;;;;6491672;31;8966;-61
2022/06/08 02:54:02;;;;;;;;;24.00;24.00;;;;;;;;6491443;46;8966;-62
2022/06/08 03:00:11;;;;;;;;;21.33;20.67;;;;;;;;6491244;31;9038;-61
2022/06/08 03:06:21;;;;;;;;;22.33;22.00;;;;;;;;6491654;46;8864;-61
2022/06/08 03:12:34;;;;;;;;;24.33;22.67;;;;;;;;6490900;46;8872;-60
2022/06/08 03:18:37;;;;;;;;;24.67;23.67;;;;;;;;6491752;46;9016;-61
2022/06/08 03:24:41;;;;;;;;;21.50;20.50;;;;;;;;6491676;39;8889;-61
2022/06/08 03:30:48;;;;;;;;;28.33;26.00;;;;;;;;6491199;31;8997;-60
2022/06/08 03:36:51;;;;;;;;;23.00;23.00;;;;;;;;6491419;39;9505;-61
2022/06/08 03:43:07;;;;;;;;;26.00;22.67;;;;;;;;6490516;46;9006;-61
2022/06/08 03:49:11;;;;;;;;;25.00;22.00;;;;;;;;6492637;31;8881;-60
2022/06/08 03:55:19;;;;;;;;;23.67;22.67;;;;;;;;6491860;31;9047;-63
2022/06/08 04:29:05;;;;;;;;;24.67;21.00;;;;;;;;6492058;47;8945;-58
2022/06/08 04:43:10;;;;;;;;;28.67;25.67;;;;;;;;6501967;36;8869;-59
2022/06/08 04:50:26;;;;;;;;;21.67;20.00;;;;;;;;6492757;39;9653;-58
2022/06/08 04:57:08;;;;;;;;;17.67;17.00;;;;;;;;6492967;31;9011;-58
2022/06/08 05:03:55;;;;;;;;;22.67;21.67;;;;;;;;6491222;39;8920;-58
2022/06/08 05:10:50;;;;;;;;;21.33;19.67;;;;;;;;6492914;39;9518;-59
2022/06/08 05:32:46;;;;;;;;;17.50;15.00;;;;;;;;6488943;39;8937;-60
2022/06/08 05:40:03;;;;;;;;;11.50;8.25;;;;;;;;6488569;31;8898;-59
2022/06/08 05:47:13;;;;;;;;;21.33;18.67;;;;;;;;6490611;39;8870;-58
2022/06/08 06:22:06;;;;;;;;;22.50;20.75;;;;;;;;6487740;31;8966;-58
2022/06/08 06:28:56;;;;;;;;;19.75;16.75;;;;;;;;6488201;39;10032;-59
2022/06/08 06:50:09;;;;;;;;;20.50;19.75;;;;;;;;6482723;31;8928;-59
2022/06/08 06:57:45;;;;;;;;;13.75;13.75;;;;;;;;6487828;39;9051;-58
2022/06/08 07:04:53;;;;;;;;;5.25;5.25;;;;;;;;6489127;46;9025;-59
2022/06/08 07:26:11;;;;;;;;;9.75;9.75;;;;;;;;6485983;31;8957;-59
2022/06/08 07:33:54;;;;;;;;;12.00;12.00;;;;;;;;6486153;31;9053;-58
2022/06/08 07:55:51;;;;;;;;;24.75;23.75;;;;;;;;6488299;39;9653;-58
2022/06/08 08:02:16;;;;;;;;;10.50;9.25;;;;;;;;6488707;31;9001;-59
2022/06/08 08:09:17;;;;;;;;;10.00;8.50;;;;;;;;6489334;31;8967;-59
2022/06/08 08:37:27;;;;;;;;;14.75;13.75;;;;;;;;6489082;39;9608;-59
2022/06/08 08:43:55;;;;;;;;;7.00;7.00;;;;;;;;6487572;39;9640;-59
2022/06/08 08:50:56;;;;;;;;;9.75;9.00;;;;;;;;6488606;39;8952;-59
2022/06/08 09:05:42;;;;;;;;;6.00;6.00;;;;;;;;6488372;31;9041;-57
2022/06/08 09:13:35;;;;;;;;;6.25;6.25;;;;;;;;6488065;39;8905;-63
2022/06/08 09:27:44;;;;;;;;;9.50;9.50;;;;;;;;6484968;31;9020;-58
2022/06/08 09:34:41;;;;;;;;;7.00;7.00;;;;;;;;6489243;31;8922;-59
2022/06/08 09:41:54;;;;;;;;;12.75;12.25;;;;;;;;6485000;39;9773;-59
2022/06/08 09:55:46;;;;;;;;;6.50;6.50;;;;;;;;6484421;31;8950;-58
2022/06/08 10:01:50;;;;;;;;;9.75;8.00;;;;;;;;6483110;31;9012;-59
2022/06/08 10:15:46;;;;;;;;;7.50;7.50;;;;;;;;6482846;39;8955;-59
2022/06/08 10:22:36;;;;;;;;;6.00;4.75;;;;;;;;6484521;47;9073;-59
2022/06/08 10:29:00;;;;;;;;;3.75;3.75;;;;;;;;6486739;39;8956;-59
2022/06/08 10:36:23;;;;;;;;;12.00;8.25;;;;;;;;6489264;39;9452;-59
2022/06/08 10:43:50;;;;;;;;;5.25;5.25;;;;;;;;6486417;31;9622;-60
2022/06/08 10:51:27;;;;;;;;;9.50;8.50;;;;;;;;6486568;31;9675;-59
2022/06/08 10:58:10;;;;;;;;;7.00;7.00;;;;;;;;6488074;39;8996;-58
2022/06/08 11:04:35;;;;;;;;;10.25;8.00;;;;;;;;6488837;39;9022;-58
2022/06/08 11:11:25;;;;;;;;;6.50;6.50;;;;;;;;6490509;39;9145;-58
2022/06/08 11:17:28;;;;;;;;;4.75;4.75;;;;;;;;6486867;39;9525;-57
2022/06/08 11:23:40;;;;;;;;;6.00;6.00;;;;;;;;6490909;39;9600;-59
2022/06/08 11:30:23;;;;;;;;;7.50;6.50;;;;;;;;6538056;36;8967;-60
2022/06/08 11:37:09;;;;;;;;;10.00;10.00;;;;;;;;6488409;31;8986;-58
2022/06/08 11:43:56;;;;;;;;;7.25;6.25;;;;;;;;6486428;31;8921;-60
2022/06/08 11:51:24;;;;;;;;;7.50;7.50;;;;;;;;6486857;46;8971;-59
2022/06/08 11:58:35;;;;;;;;;13.00;12.25;;;;;;;;6488797;39;9011;-60
2022/06/08 12:05:18;;;;;;;;;6.75;6.75;;;;;;;;6487392;46;8972;-59
2022/06/08 12:11:46;;;;;;;;;5.25;5.25;;;;;;;;6488061;31;9510;-60
2022/06/08 12:17:51;;;;;;;;;7.25;7.25;;;;;;;;6487689;39;8902;-59
2022/06/08 12:24:12;;;;;;;;;5.00;5.00;;;;;;;;6490497;39;9066;-59
2022/06/08 12:31:02;;;;;;;;;4.75;4.75;;;;;;;;6487791;31;8967;-58
2022/06/08 12:37:48;;;;;;;;;5.25;5.25;;;;;;;;6489381;39;8926;-59
2022/06/08 12:51:54;;;;;;;;;8.00;7.00;;;;;;;;6487585;39;8981;-59
2022/06/08 13:05:24;;;;;;;;;9.00;9.00;;;;;;;;6487404;46;8966;-61
2022/06/08 13:13:09;;;;;;;;;5.50;5.50;;;;;;;;6490238;31;8952;-61
2022/06/08 13:20:25;;;;;;;;;9.75;7.75;;;;;;;;6486818;46;9041;-61
2022/06/08 13:27:17;;;;;;;;;11.50;10.75;;;;;;;;6487303;39;8968;-59
2022/06/08 13:41:15;;;;;;;;;16.50;12.75;;;;;;;;6487782;31;8956;-60
2022/06/08 13:48:18;;;;;;;;;15.50;14.25;;;;;;;;6486963;31;9025;-60
2022/06/08 13:55:33;;;;;;;;;10.00;10.00;;;;;;;;6490512;39;9111;-59
2022/06/08 14:01:46;;;;;;;;;8.00;7.25;;;;;;;;6490946;39;9682;-59
2022/06/08 14:14:11;;;;;;;;;9.00;9.00;;;;;;;;6492377;31;8935;-60
2022/06/08 14:20:33;;;;;;;;;8.75;8.75;;;;;;;;6494401;31;8905;-59
2022/06/08 14:26:45;;;;;;;;;9.75;8.00;;;;;;;;6493506;39;8957;-59
2022/06/08 14:33:02;;;;;;;;;10.50;8.25;;;;;;;;6493694;39;8932;-59
2022/06/08 14:39:14;;;;;;;;;10.00;10.00;;;;;;;;6493488;46;8951;-60
2022/06/08 14:45:18;;;;;;;;;10.50;9.25;;;;;;;;6493473;31;8988;-59
2022/06/08 14:51:48;;;;;;;;;8.50;8.50;;;;;;;;6493935;39;9539;-60
2022/06/08 14:59:01;;;;;;;;;8.75;7.25;;;;;;;;6493984;39;8940;-59
2022/06/08 15:05:44;;;;;;;;;9.67;9.67;;;;;;;;6489856;39;8916;-59
2022/06/08 15:12:30;;;;;;;;;16.00;12.33;;;;;;;;6491799;31;8910;-60
2022/06/08 15:19:29;;;;;;;;;4.25;4.25;;;;;;;;6489719;39;9734;-59
2022/06/08 15:25:45;;;;;;;;;9.00;9.00;;;;;;;;6490345;46;8924;-58
2022/06/08 15:31:58;;;;;;;;;12.00;11.50;;;;;;;;6481722;39;8962;-58
2022/06/08 15:38:12;;;;;;;;;10.50;10.50;;;;;;;;6493126;39;8987;-60
2022/06/08 15:44:23;;;;;;;;;11.00;10.50;;;;;;;;6492901;31;8972;-59
2022/06/08 15:50:43;;;;;;;;;15.75;13.25;;;;;;;;6470464;39;8891;-59
2022/06/08 15:57:04;;;;;;;;;12.25;12.25;;;;;;;;6491259;39;8937;-60
2022/06/08 16:03:38;;;;;;;;;11.00;11.00;;;;;;;;6493544;39;8839;-59
2022/06/08 16:10:25;;;;;;;;;20.25;20.25;;;;;;;;6492589;39;9495;-61
2022/06/08 16:17:19;;;;;;;;;12.75;12.75;;;;;;;;6493057;39;8897;-59
2022/06/08 16:23:35;;;;;;;;;10.25;10.00;;;;;;;;6492805;31;8956;-59
2022/06/08 16:30:42;;;;;;;;;13.00;12.25;;;;;;;;6493426;39;8889;-59
2022/06/08 16:37:09;;;;;;;;;13.00;11.50;;;;;;;;6491436;46;9030;-59
2022/06/08 16:43:28;;;;;;;;;11.75;11.75;;;;;;;;6493639;31;8981;-59
2022/06/08 16:49:34;;;;;;;;;18.50;18.50;;;;;;;;6493614;31;9051;-59
2022/06/08 16:55:39;;;;;;;;;13.25;13.25;;;;;;;;6492351;46;8921;-60
2022/06/08 17:01:47;;;;;;;;;31.50;28.50;;;;;;;;6492129;39;9589;-59
2022/06/08 17:07:56;;;;;;;;;11.50;11.50;;;;;;;;6492905;39;8925;-59
2022/06/08 17:14:07;;;;;;;;;13.75;12.75;;;;;;;;6493161;31;9081;-59
2022/06/08 17:20:24;;;;;;;;;13.75;11.50;;;;;;;;6492321;39;8886;-58
2022/06/08 17:26:40;;;;;;;;;15.75;15.25;;;;;;;;6509819;36;8934;-59
2022/06/08 17:32:44;;;;;;;;;13.00;13.00;;;;;;;;6491634;39;8865;-58
2022/06/08 17:38:52;;;;;;;;;15.25;14.50;;;;;;;;6492276;39;8883;-58
2022/06/08 17:45:03;;;;;;;;;15.00;13.25;;;;;;;;6491447;46;8967;-60
2022/06/08 17:51:08;;;;;;;;;13.00;11.00;;;;;;;;6492444;39;8855;-58
2022/06/08 17:57:21;;;;;;;;;19.75;18.50;;;;;;;;6491206;39;8984;-59
2022/06/08 18:03:37;;;;;;;;;11.50;11.50;;;;;;;;6491560;31;8914;-59
2022/06/08 18:09:44;;;;;;;;;16.25;14.75;;;;;;;;6492028;47;8924;-59
2022/06/08 18:15:57;;;;;;;;;14.75;14.75;;;;;;;;6491155;47;9057;-58
2022/06/08 18:22:49;;;;;;;;;16.00;15.25;;;;;;;;6492522;47;8913;-58
2022/06/08 18:29:31;;;;;;;;;19.25;19.25;;;;;;;;6491241;39;8942;-59
2022/06/08 18:36:18;;;;;;;;;20.00;18.50;;;;;;;;6491310;39;9005;-58
2022/06/08 18:50:45;;;;;;;;;23.00;22.00;;;;;;;;6493007;39;8936;-59
2022/06/08 18:57:52;;;;;;;;;27.33;23.33;;;;;;;;6494291;31;8947;-59
2022/06/08 19:04:09;;;;;;;;;19.00;19.00;;;;;;;;6494311;39;8885;-59
2022/06/08 19:10:15;;;;;;;;;20.00;19.00;;;;;;;;6493591;31;8914;-61
2022/06/08 19:16:21;;;;;;;;;21.33;20.33;;;;;;;;6493228;46;8933;-57
2022/06/08 19:22:28;;;;;;;;;19.00;16.67;;;;;;;;6494966;31;8878;-59
2022/06/08 19:28:33;;;;;;;;;18.50;18.00;;;;;;;;6493388;39;9018;-59
2022/06/08 19:42:00;;;;;;;;;18.67;18.00;;;;;;;;6493474;39;8945;-59
2022/06/08 20:04:10;;;;;;;;;17.00;17.00;;;;;;;;6489669;31;9022;-58
2022/06/08 20:10:51;;;;;;;;;14.75;14.75;;;;;;;;6490096;39;8907;-58
2022/06/08 20:24:52;;;;;;;;;13.25;13.25;;;;;;;;6491308;39;9622;-58
2022/06/08 20:30:59;;;;;;;;;16.25;15.50;;;;;;;;6493334;39;9531;-58
2022/06/08 20:59:02;;;;;;;;;17.25;17.25;;;;;;;;6489186;46;8929;-58
2022/06/08 21:05:41;;;;;;;;;23.33;20.33;;;;;;;;6489338;39;9524;-58
2022/06/08 21:26:39;;;;;;;;;16.00;16.00;;;;;;;;6492724;39;8955;-59
2022/06/08 21:32:48;;;;;;;;;14.33;14.33;;;;;;;;6492335;46;8958;-58
2022/06/08 21:39:09;;;;;;;;;15.00;14.00;;;;;;;;6491253;46;8995;-59
2022/06/08 21:45:58;;;;;;;;;17.00;17.00;;;;;;;;6494078;39;9667;-57
2022/06/08 22:00:38;;;;;;;;;16.33;13.00;;;;;;;;6491833;39;8949;-58
2022/06/08 22:07:13;;;;;;;;;15.00;15.00;;;;;;;;6492517;31;8861;-59
2022/06/08 22:13:24;;;;;;;;;15.00;13.00;;;;;;;;6491508;39;8869;-58
2022/06/08 22:19:32;;;;;;;;;15.67;15.67;;;;;;;;6492550;31;9539;-59
2022/06/08 22:25:42;;;;;;;;;17.67;16.00;;;;;;;;6493051;39;8903;-58
2022/06/08 22:31:51;;;;;;;;;25.67;23.00;;;;;;;;6494189;39;8967;-59
2022/06/08 22:37:57;;;;;;;;;16.00;15.00;;;;;;;;6494728;31;8890;-59
2022/06/08 22:44:02;;;;;;;;;22.67;19.33;;;;;;;;6493043;31;8946;-59
2022/06/08 22:58:09;;;;;;;;;17.33;17.33;;;;;;;;6493317;39;9017;-58
2022/06/08 23:11:45;;;;;;;;;18.33;16.33;;;;;;;;6494456;46;8806;-57
2022/06/08 23:25:35;;;;;;;;;21.33;20.00;;;;;;;;6494622;31;9001;-58
2022/06/08 23:31:47;;;;;;;;;20.33;19.33;;;;;;;;6492966;39;9100;-59
2022/06/08 23:45:19;;;;;;;;;22.33;19.33;;;;;;;;6492607;46;8949;-58
2022/06/08 23:51:26;;;;;;;;;20.67;19.33;;;;;;;;6493335;39;8920;-59
2022/06/08 23:57:36;;;;;;;;;23.67;23.67;;;;;;;;6494101;36;9962;-58
